createdAt,value
2023-01-28T00:01:19.713Z,82.30
2023-01-28T00:03:51.289Z,82.24
2023-01-28T00:06:26.245Z,82.05
2023-01-28T00:08:55.085Z,82.16
2023-01-28T00:11:25.426Z,82.28
2023-01-28T00:13:57.595Z,82.02
2023-01-28T00:16:26.913Z,81.91
2023-01-28T00:19:01.970Z,81.77
2023-01-28T00:21:28.992Z,81.94
2023-01-28T00:23:57.105Z,81.95
2023-01-28T00:26:25.392Z,81.85
2023-01-28T00:28:52.462Z,82.13
2023-01-28T00:31:24.948Z,82.06
2023-01-28T00:33:52.372Z,82.10
2023-01-28T00:36:20.874Z,82.07
2023-01-28T00:38:52.577Z,82.14
2023-01-28T00:41:24.519Z,82.29
2023-01-28T00:43:52.481Z,82.12
2023-01-28T00:46:20.036Z,82.17
2023-01-28T00:48:47.329Z,81.98
2023-01-28T00:51:16.514Z,82.05
2023-01-28T00:53:43.834Z,81.89
2023-01-28T00:56:14.865Z,81.88
2023-01-28T00:58:42.379Z,81.51
2023-01-28T01:01:24.050Z,81.64
2023-01-28T01:04:03.931Z,81.66
2023-01-28T01:06:36.812Z,81.70
2023-01-28T01:09:08.388Z,81.57
2023-01-28T01:11:38.504Z,81.58
2023-01-28T01:14:19.785Z,81.37
2023-01-28T01:17:15.033Z,81.34
2023-01-28T01:19:42.200Z,81.45
2023-01-28T01:22:09.487Z,81.48
2023-01-28T01:24:36.334Z,81.28
2023-01-28T01:27:03.242Z,81.27
2023-01-28T01:29:34.032Z,81.37
2023-01-28T01:32:00.951Z,81.50
2023-01-28T01:34:30.168Z,81.48
2023-01-28T01:36:57.143Z,81.37
2023-01-28T01:39:24.042Z,81.30
2023-01-28T01:41:50.964Z,81.25
2023-01-28T01:44:55.353Z,80.97
2023-01-28T01:47:45.195Z,81.07
2023-01-28T01:50:18.423Z,80.76
2023-01-28T01:52:46.247Z,80.89
2023-01-28T01:55:17.435Z,80.86
2023-01-28T01:57:45.267Z,80.77
2023-01-28T02:00:12.377Z,80.84
2023-01-28T02:02:46.458Z,80.86
2023-01-28T02:05:16.611Z,80.87
2023-01-28T02:07:45.461Z,81.09
2023-01-28T02:10:13.196Z,80.78
2023-01-28T02:12:45.327Z,81.12
2023-01-28T02:15:16.761Z,81.00
2023-01-28T02:17:45.573Z,80.89
2023-01-28T02:20:14.817Z,81.06
2023-01-28T02:23:02.758Z,81.13
2023-01-28T02:25:37.755Z,81.08
2023-01-28T02:28:13.349Z,80.99
2023-01-28T02:30:43.069Z,80.81
2023-01-28T02:33:15.288Z,80.78
2023-01-28T02:35:47.638Z,80.90
2023-01-28T02:38:19.618Z,80.85
2023-01-28T02:41:05.938Z,80.55
2023-01-28T02:43:41.656Z,80.59
2023-01-28T02:46:40.058Z,80.40
2023-01-28T02:49:11.637Z,80.51
2023-01-28T02:52:05.711Z,80.52
2023-01-28T02:54:47.842Z,80.14
2023-01-28T02:57:33.685Z,79.80
2023-01-28T03:00:09.040Z,79.51
2023-01-28T03:02:43.104Z,79.44
2023-01-28T03:05:31.529Z,79.40
2023-01-28T03:07:59.253Z,79.36
2023-01-28T03:10:29.922Z,79.04
2023-01-28T03:13:15.391Z,78.91
2023-01-28T03:16:06.668Z,78.66
2023-01-28T03:18:59.582Z,78.71
2023-01-28T03:21:52.665Z,78.66
2023-01-28T03:24:54.648Z,78.21
2023-01-28T03:27:53.475Z,78.12
2023-01-28T03:30:50.604Z,77.99
2023-01-28T03:33:47.033Z,78.02
2023-01-28T03:36:42.234Z,77.54
2023-01-28T03:39:24.253Z,77.82
2023-01-28T03:42:21.419Z,77.67
2023-01-28T03:45:30.279Z,77.45
2023-01-28T03:48:38.164Z,77.23
2023-01-28T03:51:20.619Z,77.45
2023-01-28T03:53:52.607Z,77.02
2023-01-28T03:56:25.003Z,77.13
2023-01-28T03:58:56.883Z,77.16
2023-01-28T04:01:32.868Z,76.81
2023-01-28T04:04:05.590Z,77.21
2023-01-28T04:06:43.603Z,77.09
2023-01-28T04:09:37.240Z,77.29
2023-01-28T04:12:23.964Z,77.33
2023-01-28T04:14:52.477Z,77.25
2023-01-28T04:17:31.983Z,77.04
2023-01-28T04:20:01.268Z,76.89
2023-01-28T04:22:28.601Z,76.91
2023-01-28T04:24:55.700Z,77.05
2023-01-28T04:27:25.707Z,76.58
2023-01-28T04:29:52.898Z,76.64
2023-01-28T04:32:34.842Z,76.34
2023-01-28T04:35:23.212Z,76.25
2023-01-28T04:38:01.591Z,76.18
2023-01-28T04:40:42.143Z,76.21
2023-01-28T04:43:20.001Z,75.96
2023-01-28T04:45:50.886Z,75.84
2023-01-28T04:48:32.266Z,75.60
2023-01-28T04:51:31.446Z,75.76
2023-01-28T04:54:10.280Z,75.57
2023-01-28T04:56:38.001Z,75.68
2023-01-28T04:59:08.400Z,75.44
2023-01-28T05:01:35.638Z,75.40
2023-01-28T05:04:05.856Z,75.58
2023-01-28T05:06:37.301Z,75.61
2023-01-28T05:09:11.687Z,75.81
2023-01-28T05:11:41.251Z,75.57
2023-01-28T05:14:08.589Z,75.59
2023-01-28T05:16:45.659Z,75.44
2023-01-28T05:19:12.702Z,75.23
2023-01-28T05:21:42.920Z,75.18
2023-01-28T05:24:38.896Z,75.02
2023-01-28T05:27:07.705Z,75.03
2023-01-28T05:29:34.835Z,75.29
2023-01-28T05:32:02.094Z,75.17
2023-01-28T05:34:33.739Z,75.21
2023-01-28T05:37:09.068Z,74.90
2023-01-28T05:39:37.755Z,75.22
2023-01-28T05:42:05.711Z,75.95
2023-01-28T05:44:35.117Z,76.21
2023-01-28T05:47:20.733Z,76.05
2023-01-28T05:49:50.486Z,75.51
2023-01-28T05:52:35.772Z,75.62
2023-01-28T05:55:03.193Z,75.46
2023-01-28T05:57:29.960Z,75.13
2023-01-28T05:59:56.783Z,75.20
2023-01-28T06:02:23.688Z,75.28
2023-01-28T06:04:54.031Z,75.25
2023-01-28T06:07:21.264Z,75.39
2023-01-28T06:09:48.664Z,75.35
2023-01-28T06:12:19.006Z,75.29
2023-01-28T06:15:12.202Z,75.45
2023-01-28T06:17:57.491Z,75.63
2023-01-28T06:20:29.673Z,75.36
2023-01-28T06:22:57.795Z,75.29
2023-01-28T06:25:27.156Z,75.02
2023-01-28T06:27:54.547Z,74.83
2023-01-28T06:30:21.375Z,74.80
2023-01-28T06:32:48.256Z,74.74
2023-01-28T06:35:14.949Z,75.08
2023-01-28T06:37:41.883Z,75.06
2023-01-28T06:40:09.652Z,75.13
2023-01-28T06:42:36.432Z,74.95
2023-01-28T06:45:06.788Z,74.87
2023-01-28T06:47:34.581Z,75.03
2023-01-28T06:50:09.431Z,75.07
2023-01-28T06:52:36.340Z,74.81
2023-01-28T06:55:03.325Z,74.81
2023-01-28T06:57:35.732Z,74.79
2023-01-28T07:00:11.034Z,74.31
2023-01-28T07:02:38.264Z,74.11
2023-01-28T07:05:06.455Z,74.23
2023-01-28T07:07:33.122Z,74.09
2023-01-28T07:09:59.788Z,74.17
2023-01-28T07:12:26.461Z,73.70
2023-01-28T07:14:53.126Z,73.78
2023-01-28T07:17:19.978Z,74.05
2023-01-28T07:19:46.697Z,73.85
2023-01-28T07:22:13.385Z,74.15
2023-01-28T07:24:40.175Z,73.51
2023-01-28T07:27:07.180Z,73.23
2023-01-28T07:29:34.207Z,73.04
2023-01-28T07:32:01.014Z,72.85
2023-01-28T07:34:27.728Z,72.36
2023-01-28T07:36:57.242Z,72.41
2023-01-28T07:39:24.255Z,72.41
2023-01-28T07:41:50.974Z,72.60
2023-01-28T07:44:37.620Z,72.53
2023-01-28T07:47:05.720Z,72.58
2023-01-28T07:49:34.178Z,72.31
2023-01-28T07:52:00.841Z,72.64
2023-01-28T07:54:27.557Z,72.38
2023-01-28T07:56:54.223Z,72.06
2023-01-28T07:59:21.245Z,72.08
2023-01-28T08:01:47.921Z,72.06
2023-01-28T08:04:14.790Z,72.20
2023-01-28T08:06:41.546Z,72.13
2023-01-28T08:09:08.600Z,71.94
2023-01-28T08:11:38.541Z,71.63
2023-01-28T08:14:05.421Z,71.21
2023-01-28T08:16:32.450Z,71.21
2023-01-28T08:18:59.120Z,71.11
2023-01-28T08:21:25.878Z,71.16
2023-01-28T08:23:52.698Z,71.11
2023-01-28T08:26:19.405Z,71.27
2023-01-28T08:28:46.154Z,71.00
2023-01-28T08:31:12.875Z,71.14
2023-01-28T08:33:39.592Z,70.74
2023-01-28T08:36:07.102Z,70.57
2023-01-28T08:38:33.786Z,70.42
2023-01-28T08:41:00.583Z,69.78
2023-01-28T08:43:27.247Z,69.82
2023-01-28T08:45:54.182Z,69.68
2023-01-28T08:48:21.846Z,69.58
2023-01-28T08:50:48.623Z,69.41
2023-01-28T08:53:18.139Z,69.32
2023-01-28T08:55:46.003Z,69.36
2023-01-28T08:58:17.725Z,69.46
2023-01-28T09:00:45.344Z,69.38
2023-01-28T09:03:12.058Z,69.21
2023-01-28T09:05:39.199Z,69.04
2023-01-28T09:08:08.309Z,69.27
2023-01-28T09:10:37.574Z,69.24
2023-01-28T09:13:13.249Z,68.95
2023-01-28T09:15:40.311Z,68.88
2023-01-28T09:18:07.330Z,68.99
2023-01-28T09:20:34.481Z,68.96
2023-01-28T09:23:01.706Z,69.15
2023-01-28T09:25:28.469Z,68.78
2023-01-28T09:27:55.180Z,68.61
2023-01-28T09:30:22.291Z,68.60
2023-01-28T09:32:52.755Z,68.40
2023-01-28T09:35:19.619Z,68.30
2023-01-28T09:37:47.210Z,68.40
2023-01-28T09:40:33.500Z,68.04
2023-01-28T09:43:29.295Z,67.91
2023-01-28T09:45:59.245Z,68.02
2023-01-28T09:48:32.888Z,67.93
2023-01-28T09:51:00.630Z,67.94
2023-01-28T09:53:32.673Z,67.48
2023-01-28T09:56:05.939Z,67.50
2023-01-28T09:58:32.687Z,67.48
2023-01-28T10:01:25.034Z,67.49
2023-01-28T10:04:12.676Z,66.91
2023-01-28T10:06:45.527Z,66.96
2023-01-28T10:09:31.009Z,66.66
2023-01-28T10:12:11.541Z,66.93
2023-01-28T10:15:04.456Z,66.54
2023-01-28T10:17:35.252Z,66.42
2023-01-28T10:20:07.140Z,66.22
2023-01-28T10:22:44.780Z,66.26
2023-01-28T10:25:19.440Z,66.43
2023-01-28T10:27:47.387Z,66.60
2023-01-28T10:30:26.043Z,66.57
2023-01-28T10:33:27.263Z,66.28
2023-01-28T10:35:54.407Z,66.55
2023-01-28T10:38:22.899Z,66.15
2023-01-28T10:40:50.416Z,66.09
2023-01-28T10:43:20.124Z,65.95
2023-01-28T10:45:56.328Z,66.03
2023-01-28T10:48:30.288Z,65.81
2023-01-28T10:51:02.741Z,65.76
2023-01-28T10:53:37.893Z,66.00
2023-01-28T10:56:08.174Z,66.06
2023-01-28T10:58:37.560Z,66.30
2023-01-28T11:01:07.211Z,65.94
2023-01-28T11:03:35.824Z,66.02
2023-01-28T11:06:03.021Z,65.64
2023-01-28T11:08:31.227Z,65.66
2023-01-28T11:10:58.239Z,65.83
2023-01-28T11:13:27.549Z,65.97
2023-01-28T11:16:13.451Z,65.70
2023-01-28T11:18:41.412Z,65.79
2023-01-28T11:21:16.914Z,65.83
2023-01-28T11:23:52.547Z,65.80
2023-01-28T11:26:23.144Z,66.03
2023-01-28T11:28:50.856Z,65.81
2023-01-28T11:31:19.625Z,66.05
2023-01-28T11:33:51.303Z,66.09
2023-01-28T11:36:20.907Z,66.15
2023-01-28T11:38:58.884Z,66.31
2023-01-28T11:41:33.206Z,66.58
2023-01-28T11:44:06.233Z,67.06
2023-01-28T11:46:57.555Z,66.78
2023-01-28T11:49:35.218Z,66.94
2023-01-28T11:52:25.054Z,66.85
2023-01-28T11:55:02.879Z,67.10
2023-01-28T11:58:00.790Z,67.33
2023-01-28T12:00:35.223Z,67.23
2023-01-28T12:03:33.016Z,67.35
2023-01-28T12:06:27.717Z,67.48
2023-01-28T12:09:20.307Z,67.45
2023-01-28T12:12:11.864Z,67.49
2023-01-28T12:15:02.994Z,67.34
2023-01-28T12:17:52.793Z,67.62
2023-01-28T12:20:29.863Z,67.57
2023-01-28T12:23:15.411Z,67.83
2023-01-28T12:26:02.515Z,68.03
2023-01-28T12:28:38.885Z,67.79
2023-01-28T12:31:24.439Z,68.00
2023-01-28T12:33:57.349Z,68.04
2023-01-28T12:36:40.757Z,68.04
2023-01-28T12:39:13.241Z,68.52
2023-01-28T12:41:51.322Z,68.40
2023-01-28T12:44:24.927Z,68.55
2023-01-28T12:46:55.758Z,68.79
2023-01-28T12:49:32.889Z,68.67
2023-01-28T12:52:27.486Z,68.72
2023-01-28T12:55:06.948Z,68.87
2023-01-28T12:57:35.017Z,69.01
2023-01-28T13:00:29.962Z,68.94
2023-01-28T13:14:28.722Z,69.37
2023-01-28T13:17:29.031Z,69.55
2023-01-28T13:19:56.231Z,69.37
2023-01-28T13:22:37.231Z,69.41
2023-01-28T13:25:23.309Z,69.40
2023-01-28T13:28:01.233Z,69.25
2023-01-28T13:30:44.468Z,69.54
2023-01-28T13:37:49.833Z,69.39
2023-01-28T13:40:39.087Z,69.09
2023-01-28T13:43:49.953Z,69.00
2023-01-28T13:50:26.236Z,67.69
2023-01-28T13:53:25.654Z,67.03
2023-01-28T13:56:09.828Z,66.79
2023-01-28T14:03:20.019Z,66.32
2023-01-28T14:06:27.355Z,65.82
2023-01-28T14:09:29.459Z,66.15
2023-01-28T14:12:55.579Z,66.25
2023-01-28T14:15:53.647Z,66.24
2023-01-28T14:18:36.381Z,65.94
2023-01-28T14:21:10.147Z,65.73
2023-01-28T14:23:57.447Z,65.48
2023-01-28T14:26:55.238Z,65.55
2023-01-28T14:30:05.264Z,65.47
2023-01-28T14:32:42.453Z,65.27
2023-01-28T14:38:27.563Z,65.15
2023-01-28T14:41:20.766Z,64.89
2023-01-28T14:43:55.077Z,65.37
2023-01-28T14:46:53.070Z,65.26
2023-01-28T14:49:56.649Z,65.27
2023-01-28T14:53:10.290Z,65.20
2023-01-28T14:56:00.730Z,65.45
2023-01-28T14:58:50.535Z,65.67
2023-01-28T15:01:27.428Z,65.55
2023-01-28T15:03:55.028Z,65.79
2023-01-28T15:06:27.343Z,65.71
2023-01-28T15:09:25.218Z,65.60
2023-01-28T15:19:25.723Z,65.63
2023-01-28T15:22:06.002Z,65.51
2023-01-28T15:27:32.867Z,65.65
2023-01-28T15:30:44.318Z,65.80
2023-01-28T15:33:34.721Z,65.90
2023-01-28T15:37:00.732Z,65.91
2023-01-28T15:39:55.048Z,66.07
2023-01-28T15:43:18.633Z,65.97
2023-01-28T15:46:09.892Z,66.04
2023-01-28T15:49:13.764Z,65.94
2023-01-28T15:55:50.656Z,66.07
2023-01-28T15:58:49.692Z,66.07
2023-01-28T16:01:31.275Z,66.34
2023-01-28T16:04:40.945Z,66.48
2023-01-28T16:07:23.527Z,66.71
2023-01-28T16:16:16.540Z,66.82
2023-01-28T16:18:53.340Z,66.92
2023-01-28T16:21:37.031Z,67.18
2023-01-28T16:24:32.558Z,67.12
2023-01-28T16:27:27.357Z,67.25
2023-01-28T16:30:01.837Z,67.13
2023-01-28T16:32:37.669Z,67.42
2023-01-28T16:35:19.501Z,67.46
2023-01-28T16:37:55.695Z,67.46
2023-01-28T16:43:53.706Z,67.65
2023-01-28T16:47:14.891Z,67.88
2023-01-28T16:53:42.795Z,67.96
2023-01-28T16:56:45.181Z,68.00
2023-01-28T16:59:42.931Z,67.86
2023-01-28T17:02:50.628Z,67.94
2023-01-28T17:05:57.428Z,67.67
2023-01-28T17:08:56.146Z,67.59
2023-01-28T17:11:52.645Z,67.90
2023-01-28T17:14:45.366Z,67.68
2023-01-28T17:18:16.753Z,67.74
2023-01-28T17:20:50.261Z,67.95
2023-01-28T17:23:43.294Z,67.89
2023-01-28T17:26:23.763Z,67.95
2023-01-28T17:29:13.330Z,68.23
2023-01-28T17:32:04.782Z,68.03
2023-01-28T17:35:08.628Z,68.24
2023-01-28T17:37:35.486Z,68.08
2023-01-28T17:40:49.484Z,68.03
2023-01-28T17:43:16.346Z,68.32
2023-01-28T17:45:43.184Z,68.31
2023-01-28T17:48:33.728Z,68.18
2023-01-28T17:51:05.765Z,68.29
2023-01-28T17:53:33.548Z,68.58
2023-01-28T17:56:00.611Z,68.58
2023-01-28T17:58:30.422Z,68.67
2023-01-28T18:01:18.749Z,68.70
2023-01-28T18:12:15.642Z,69.04
2023-01-28T18:15:46.758Z,69.22
2023-01-28T18:18:46.529Z,69.21
2023-01-28T18:21:52.795Z,69.17
2023-01-28T18:27:24.170Z,69.33
2023-01-28T18:30:04.880Z,69.31
2023-01-28T18:32:52.635Z,69.38
2023-01-28T18:35:19.593Z,69.58
2023-01-28T18:37:46.388Z,69.37
2023-01-28T18:40:17.446Z,69.61
2023-01-28T18:42:44.721Z,69.43
2023-01-28T18:45:12.403Z,69.83
2023-01-28T18:47:46.207Z,69.77
2023-01-28T18:50:13.461Z,69.59
2023-01-28T18:52:43.556Z,69.82
2023-01-28T19:01:39.253Z,69.79
2023-01-28T19:08:03.517Z,69.77
2023-01-28T19:13:43.674Z,69.83
2023-01-28T19:16:41.136Z,69.67
2023-01-28T19:19:41.073Z,69.78
2023-01-28T19:22:44.547Z,69.74
2023-01-28T19:25:55.506Z,69.84
2023-01-28T19:36:28.898Z,70.39
2023-01-28T19:39:21.360Z,70.46
2023-01-28T19:42:24.549Z,70.39
2023-01-28T19:49:08.882Z,70.70
2023-01-28T19:51:35.714Z,70.41
2023-01-28T19:54:02.428Z,70.69
2023-01-28T19:56:30.032Z,70.93
2023-01-28T19:58:56.737Z,70.75
2023-01-28T20:01:27.253Z,71.01
2023-01-28T20:03:59.285Z,71.03
2023-01-28T20:06:27.790Z,71.26
2023-01-28T20:08:57.393Z,71.41
2023-01-28T20:11:26.239Z,71.29
2023-01-28T20:13:53.405Z,71.43
2023-01-28T20:16:31.562Z,71.44
2023-01-28T20:19:06.132Z,71.59
2023-01-28T20:21:33.486Z,71.54
2023-01-28T20:24:01.712Z,71.67
2023-01-28T20:26:33.425Z,71.82
2023-01-28T20:29:01.922Z,72.03
2023-01-28T20:31:28.950Z,72.17
2023-01-28T20:33:58.285Z,72.10
2023-01-28T20:36:24.996Z,71.90
2023-01-28T20:38:51.798Z,72.06
2023-01-28T20:41:21.015Z,72.31
2023-01-28T20:43:48.679Z,71.98
2023-01-28T20:46:24.272Z,72.11
2023-01-28T20:48:53.533Z,72.05
2023-01-28T20:51:22.639Z,72.21
2023-01-28T20:53:50.072Z,72.07
2023-01-28T20:56:19.956Z,72.01
2023-01-28T20:58:49.340Z,72.21
2023-01-28T21:01:23.439Z,72.19
2023-01-28T21:03:50.755Z,72.21
2023-01-28T21:06:17.760Z,72.52
2023-01-28T21:08:45.115Z,72.25
2023-01-28T21:11:12.222Z,72.33
2023-01-28T21:13:39.022Z,72.50
2023-01-28T21:16:06.217Z,72.50
2023-01-28T21:18:32.924Z,72.67
2023-01-28T21:21:05.412Z,72.37
2023-01-28T21:23:32.164Z,72.29
2023-01-28T21:26:03.798Z,72.41
2023-01-28T21:28:30.743Z,72.29
2023-01-28T21:31:12.099Z,72.20
2023-01-28T21:33:38.856Z,72.39
2023-01-28T21:36:10.921Z,72.51
2023-01-28T21:38:38.050Z,72.35
2023-01-28T21:41:05.349Z,72.31
2023-01-28T23:37:43.063Z,73.41
